^^
Station Historical Data
Daily Summary for February 26, 2017 Units:  English    Metric   Both
« Previous Day
Next Day »
Daily Weekly Monthly Yearly Custom
  High: Low: Average:
Temperature: 41.2 °F 31.5 °F 36.3 °F
Dew Point: 38.5 °F 18.2 °F 22.3 °F
Humidity: 90% 44% 57%
Wind Speed: 9.0mph 0.0mph 2.6mph
Wind Gust: 21.0mph - -
Wind- - SW
Pressure: 30.28 in 29.67 in -
Precipitation: 0.00 in    
Historical Graphs
 
 
Tabular Data for February 26, 2017
Time Temperature Dew Point Pressure Wind Wind Speed Wind Gust Humidity Rainfall Rate (Hourly) Conditions
00:00 41.2 °F 38.5 °F 29.67 in NNE 1.0 mph 6.0 mph 90% 0.00 in RA
00:15 41.2 °F 36.1 °F 29.68 in NNW 5.0 mph 12.0 mph 82% 0.00 in SCT
00:30 41.1 °F 35.1 °F 29.69 in NW 3.0 mph 14.0 mph 79% 0.00 in SCT
00:45 40.6 °F 33.0 °F 29.69 in NNW 3.0 mph 13.0 mph 74% 0.00 in SCT
01:00 40.0 °F 32.7 °F 29.69 in North 3.0 mph 10.0 mph 75% 0.00 in SCT
01:15 39.6 °F 30.6 °F 29.71 in NW 8.0 mph 15.0 mph 70% 0.00 in SCT
01:30 39.1 °F 30.2 °F 29.72 in NNW 5.0 mph 9.0 mph 70% 0.00 in SCT
01:45 38.8 °F 29.1 °F 29.73 in ESE 3.0 mph 12.0 mph 68% 0.00 in SCT
02:00 38.8 °F 28.8 °F 29.73 in ENE 2.0 mph 13.0 mph 67% 0.00 in SCT
02:15 38.7 °F 28.7 °F 29.74 in West 2.0 mph 12.0 mph 67% 0.00 in FEW
02:30 38.7 °F 28.7 °F 29.75 in West 2.0 mph 14.0 mph 67% 0.00 in FEW
02:45 38.5 °F 29.2 °F 29.75 in NW 1.0 mph 13.0 mph 69% 0.00 in FEW
03:00 38.4 °F 28.8 °F 29.76 in NW 5.0 mph 12.0 mph 68% 0.00 in FEW
03:15 38.2 °F 28.6 °F 29.76 in NE 3.0 mph 12.0 mph 68% 0.00 in BKN
03:30 38.0 °F 28.0 °F 29.77 in NNW 2.0 mph 12.0 mph 67% 0.00 in BKN
03:45 37.7 °F 27.7 °F 29.78 in NW 5.0 mph 13.0 mph 67% 0.00 in BKN
04:00 37.3 °F 26.2 °F 29.79 in NNW 1.0 mph 13.0 mph 64% 0.00 in BKN
04:15 36.8 °F 25.4 °F 29.79 in SW 2.0 mph 14.0 mph 63% 0.00 in BKN
04:30 36.4 °F 25.0 °F 29.80 in NE 3.0 mph 10.0 mph 63% 0.00 in BKN
04:45 36.3 °F 23.3 °F 29.81 in ENE 2.0 mph 12.0 mph 59% 0.00 in BKN
05:00 36.0 °F 22.7 °F 29.82 in ENE 2.0 mph 12.0 mph 58% 0.00 in BKN
05:15 35.8 °F 22.9 °F 29.83 in NNW 6.0 mph 12.0 mph 59% 0.00 in SCT
05:30 35.5 °F 22.6 °F 29.83 in WSW 3.0 mph 15.0 mph 59% 0.00 in SCT
05:45 35.1 °F 22.2 °F 29.84 in SW 3.0 mph 21.0 mph 59% 0.00 in SCT
06:00 35.1 °F 21.8 °F 29.85 in SW 3.0 mph 14.0 mph 58% 0.00 in SCT
06:15 35.1 °F 22.2 °F 29.86 in West 5.0 mph 14.0 mph 59% 0.00 in SCT
06:30 35.0 °F 22.1 °F 29.87 in SSW 5.0 mph 21.0 mph 59% 0.00 in SCT
06:45 34.9 °F 22.4 °F 29.88 in SW 3.0 mph 12.0 mph 60% 0.00 in SCT
07:00 34.9 °F 22.4 °F 29.90 in West 7.0 mph 16.0 mph 60% 0.00 in SCT
07:15 35.0 °F 23.3 °F 29.91 in SSW 2.0 mph 12.0 mph 62% 0.00 in BKN
07:30 34.6 °F 21.7 °F 29.91 in NNE 7.0 mph 18.0 mph 59% 0.00 in BKN
07:45 34.6 °F 21.7 °F 29.93 in WNW 2.0 mph 16.0 mph 59% 0.00 in BKN
08:00 34.5 °F 21.2 °F 29.94 in East 3.0 mph 16.0 mph 58% 0.00 in BKN
08:15 34.5 °F 21.7 °F 29.94 in NE 5.0 mph 13.0 mph 59% 0.00 in BKN
08:30 34.7 °F 21.8 °F 29.95 in NW 3.0 mph 10.0 mph 59% 0.00 in BKN
08:45 34.8 °F 21.1 °F 29.95 in SSE 5.0 mph 14.0 mph 57% 0.00 in BKN
09:00 34.8 °F 21.5 °F 29.97 in ESE 3.0 mph 11.0 mph 58% 0.00 in BKN
09:15 34.7 °F 21.4 °F 29.97 in West 3.0 mph 12.0 mph 58% 0.00 in BKN
09:30 34.5 °F 21.6 °F 29.98 in North 2.0 mph 12.0 mph 59% 0.00 in BKN
09:45 34.9 °F 19.9 °F 29.99 in NNE 1.0 mph 15.0 mph 54% 0.00 in BKN
10:00 35.2 °F 19.3 °F 29.99 in NNW 6.0 mph 16.0 mph 52% 0.00 in BKN
10:15 35.8 °F 19.5 °F 29.99 in West 7.0 mph 15.0 mph 51% 0.00 in BKN
10:30 36.4 °F 19.5 °F 30.00 in North 5.0 mph 14.0 mph 50% 0.00 in BKN
10:45 37.0 °F 20.5 °F 30.01 in NNE 1.0 mph 13.0 mph 51% 0.00 in BKN
11:00 37.0 °F 20.1 °F 30.01 in NNW 9.0 mph 17.0 mph 50% 0.00 in BKN
11:15 36.2 °F 19.8 °F 30.01 in NW 3.0 mph 15.0 mph 51% 0.00 in BKN
11:30 37.2 °F 19.8 °F 30.01 in West 3.0 mph 14.0 mph 49% 0.00 in BKN
11:45 37.5 °F 21.0 °F 30.02 in WNW 2.0 mph 14.0 mph 51% 0.00 in BKN
12:00 37.6 °F 20.1 °F 30.02 in SW 3.0 mph 14.0 mph 49% 0.00 in BKN
12:15 37.9 °F 19.9 °F 30.03 in SSW 2.0 mph 10.0 mph 48% 0.00 in BKN
12:30 38.4 °F 19.9 °F 30.02 in West 5.0 mph 13.0 mph 47% 0.00 in BKN
12:45 38.4 °F 19.9 °F 30.02 in SSE 5.0 mph 16.0 mph 47% 0.00 in BKN
13:00 39.5 °F 20.4 °F 30.02 in SW 2.0 mph 14.0 mph 46% 0.00 in BKN
13:15 39.4 °F 20.3 °F 30.02 in WNW 3.0 mph 12.0 mph 46% 0.00 in SCT
13:30 39.3 °F 19.2 °F 30.02 in WSW 6.0 mph 14.0 mph 44% 0.00 in SCT
13:45 39.6 °F 22.0 °F 30.03 in WSW 2.0 mph 16.0 mph 49% 0.00 in SCT
14:00 39.3 °F 20.2 °F 30.03 in NW 2.0 mph 13.0 mph 46% 0.00 in SCT
14:15 38.7 °F 20.7 °F 30.03 in North 3.0 mph 14.0 mph 48% 0.00 in SCT
14:30 38.9 °F 19.8 °F 30.04 in West 3.0 mph 12.0 mph 46% 0.00 in SCT
14:45 39.2 °F 20.6 °F 30.04 in NNW 6.0 mph 12.0 mph 47% 0.00 in SCT
15:00 38.5 °F 20.0 °F 30.05 in NNW 3.0 mph 9.0 mph 47% 0.00 in SCT
15:15 38.5 °F 20.0 °F 30.05 in North 2.0 mph 9.0 mph 47% 0.00 in SCT
15:45 38.7 °F 20.7 °F 30.06 in WNW 3.0 mph 12.0 mph 48% 0.00 in SCT
16:00 38.7 °F 20.6 °F 30.07 in NNW 3.0 mph 10.0 mph 48% 0.00 in SCT
16:15 38.5 °F 20.5 °F 30.08 in NNW 2.0 mph 12.0 mph 48% 0.00 in SCT
16:30 37.6 °F 20.1 °F 30.09 in ENE 1.0 mph 7.0 mph 49% 0.00 in SCT
16:45 37.8 °F 20.3 °F 30.10 in NNW 3.0 mph 7.0 mph 49% 0.00 in SCT
17:00 38.5 °F 21.0 °F 30.11 in North 2.0 mph 8.0 mph 49% 0.00 in SCT
17:15 37.9 °F 20.4 °F 30.11 in North 1.0 mph 10.0 mph 49% 0.00 in SCT
17:30 37.1 °F 20.1 °F 30.12 in NW 1.0 mph 8.0 mph 50% 0.00 in SCT
17:45 36.7 °F 19.8 °F 30.13 in Calm   10.0 mph 50% 0.00 in SCT
18:00 36.1 °F 19.7 °F 30.14 in North 3.0 mph 7.0 mph 51% 0.00 in SCT
18:15 35.7 °F 19.7 °F 30.15 in North 1.0 mph 8.0 mph 52% 0.00 in SCT
18:30 35.4 °F 20.4 °F 30.16 in NNE 2.0 mph 8.0 mph 54% 0.00 in SCT
18:45 35.2 °F 19.8 °F 30.17 in Calm   7.0 mph 53% 0.00 in SCT
19:00 34.9 °F 19.9 °F 30.18 in NNE 1.0 mph 4.0 mph 54% 0.00 in SCT
19:15 34.7 °F 20.2 °F 30.19 in Calm   3.0 mph 55% 0.00 in CLR
19:30 34.2 °F 20.1 °F 30.20 in SW 1.0 mph 4.0 mph 56% 0.00 in CLR
19:45 34.1 °F 19.6 °F 30.20 in South 1.0 mph 3.0 mph 55% 0.00 in CLR
20:00 34.0 °F 19.5 °F 30.21 in Calm   3.0 mph 55% 0.00 in CLR
20:15 33.9 °F 19.0 °F 30.22 in SSW 1.0 mph 4.0 mph 54% 0.00 in CLR
20:30 33.7 °F 19.2 °F 30.23 in Calm   5.0 mph 55% 0.00 in CLR
20:45 33.2 °F 18.8 °F 30.24 in Calm   2.0 mph 55% 0.00 in CLR
21:00 33.1 °F 18.7 °F 30.24 in Calm   4.0 mph 55% 0.00 in CLR
21:15 32.7 °F 18.7 °F 30.25 in Calm   2.0 mph 56% 0.00 in CLR
21:30 32.3 °F 18.8 °F 30.25 in Calm   2.0 mph 57% 0.00 in CLR
21:45 32.4 °F 18.5 °F 30.25 in Calm   2.0 mph 56% 0.00 in CLR
22:00 32.6 °F 18.2 °F 30.25 in Calm   3.0 mph 55% 0.00 in CLR
22:15 32.4 °F 18.8 °F 30.25 in Calm   2.0 mph 57% 0.00 in CLR
22:30 31.8 °F 19.1 °F 30.26 in Calm   3.0 mph 59% 0.00 in CLR
22:45 31.5 °F 19.6 °F 30.26 in Calm   3.0 mph 61% 0.00 in CLR
23:00 31.6 °F 19.3 °F 30.27 in Calm   4.0 mph 60% 0.00 in CLR
23:15 31.7 °F 19.4 °F 30.27 in SW 1.0 mph 6.0 mph 60% 0.00 in CLR
23:30 32.3 °F 19.5 °F 30.28 in Calm   8.0 mph 59% 0.00 in CLR
23:45 31.9 °F 19.2 °F 30.28 in SSE 1.0 mph 4.0 mph 59% 0.00 in CLR
TarryTown NY Weather
Compliments of Weather Underground - 1.5 mb